Oceania — SQOC — position and weather

sailwx.info

Track history (hours):
 
Tides and Currents Weather Stations Pressure Air Temp Water Temp Dewpoint Dewpoint Depression Visibility Wind Speed Wind Dir Waves Ship Positions

Oceanographic research ship Oceania (Poland)

Detailed information on ship capabilities available from University of Delaware's Ocean Information Center and ARCUS's ALIAS (Arctic Logistics Information and Support) project.

Last reported at 2017-Apr-27 16:31 UTC. Time now 2017-Apr-27 16:45 UTC.
Position N 54°45' E 019°10'.

Length 49 m; beam 9 m.

Type: Sailing vessel. MMSI: 261000142.

Date/timePositionNaut miles runAvg speedWind from/ knotsBaromVisibWave heightAir tempDewpointWater temp
2017-Apr-27 16:31N 54°45' E 019°10'1 2.4
2017-Apr-27 16:00N 54°43' E 019°11'1 1.7
2017-Apr-27 15:30N 54°44' E 019°10'0 0.6
2017-Apr-27 15:00N 54°44' E 019°11'0 0.2
2017-Apr-27 13:59N 54°44' E 019°10'0 0.0
2017-Apr-27 13:26N 54°44' E 019°10'0 0.1
2017-Apr-27 12:56N 54°44' E 019°11'0 0.0
2017-Apr-27 12:29N 54°44' E 019°11'0 0.0
2017-Apr-27 11:56N 54°44' E 019°11'0 0.9
2017-Apr-27 11:30N 54°44' E 019°11'0 0.3
2017-Apr-27 10:55N 54°44' E 019°11'0 0.0
2017-Apr-27 10:19N 54°44' E 019°11'0 0.0
2017-Apr-27 09:58N 54°44' E 019°11'0 0.0
2017-Apr-27 09:19N 54°44' E 019°11'0 0.0
2017-Apr-27 08:58N 54°44' E 019°11'0 0.0
2017-Apr-27 08:28N 54°44' E 019°11'0 0.0
2017-Apr-27 07:55N 54°44' E 019°11'0 0.0
2017-Apr-27 07:28N 54°44' E 019°11'0 0.0
2017-Apr-27 06:58N 54°44' E 019°11'0 0.0
2017-Apr-27 06:28N 54°44' E 019°11'0 0.0
2017-Apr-27 05:55N 54°44' E 019°11'0 0.2
2017-Apr-27 05:28N 54°44' E 019°11'2 4.1
2017-Apr-27 05:00N 54°42' E 019°11'510.8
2017-Apr-27 04:30N 54°36' E 019°09'510.5
2017-Apr-27 04:00N 54°31' E 019°07'1 2.2
2017-Apr-27 03:28N 54°30' E 019°07'0 0.0
2017-Apr-27 02:58N 54°30' E 019°07'0 0.0
2017-Apr-27 02:28N 54°30' E 019°07'0 0.0
2017-Apr-27 01:58N 54°30' E 019°07'0 0.0
2017-Apr-27 01:28N 54°30' E 019°07'0 0.1
2017-Apr-27 00:58N 54°30' E 019°07'0 0.2
2017-Apr-27 00:28N 54°30' E 019°07'0 0.1
2017-Apr-26 23:55N 54°30' E 019°07'0 0.0
2017-Apr-26 23:25N 54°30' E 019°07'0 0.1
2017-Apr-26 22:58N 54°30' E 019°07'0 0.0
2017-Apr-26 22:28N 54°30' E 019°07'0 0.1
2017-Apr-26 21:58N 54°30' E 019°07'0 0.0
2017-Apr-26 21:28N 54°30' E 019°07'0 0.0
2017-Apr-26 20:58N 54°30' E 019°07'0 0.0
2017-Apr-26 20:28N 54°30' E 019°07'0 0.0
2017-Apr-26 19:58N 54°30' E 019°07'0 0.0
2017-Apr-26 19:28N 54°30' E 019°07'0 0.0
2017-Apr-26 18:58N 54°30' E 019°07'0 0.1
2017-Apr-26 18:30N 54°30' E 019°07'1 1.5
2017-Apr-26 18:00N 54°29' E 019°07'1 2.1
2017-Apr-26 17:30N 54°30' E 019°07'3 6.5
2017-Apr-26 17:00N 54°34' E 019°08'510.4
2017-Apr-26 16:30N 54°39' E 019°09'510.3
2017-Apr-26 15:59N 54°44' E 019°11'0 0.7
2017-Apr-26 15:30N 54°44' E 019°10'0 0.0
2017-Apr-26 15:00N 54°44' E 019°10'0 0.0
2017-Apr-26 14:30N 54°44' E 019°10'0 0.0
2017-Apr-26 13:30N 54°44' E 019°10'0 0.0
2017-Apr-26 13:00N 54°44' E 019°10'0 0.0
2017-Apr-26 12:30N 54°44' E 019°10'0 0.0
2017-Apr-26 12:00N 54°44' E 019°10'0 0.3
2017-Apr-26 11:31N 54°44' E 019°10'4 7.6
2017-Apr-26 11:00N 54°42' E 019°05'610.4
2017-Apr-26 10:28N 54°37' E 018°58'510.7
2017-Apr-26 09:59N 54°34' E 018°52'510.5
2017-Apr-26 09:31N 54°30' E 018°46'510.5
2017-Apr-26 09:01N 54°27' E 018°40'3 5.3
2017-Apr-26 08:29N 54°24' E 018°40'0 0.0
2017-Apr-26 07:59N 54°24' E 018°40'0 0.0
2017-Apr-26 07:29N 54°24' E 018°40'0 0.0
2017-Apr-26 06:59N 54°24' E 018°40'0 0.0
2017-Apr-26 06:29N 54°24' E 018°40'0 0.0
2017-Apr-26 05:56N 54°24' E 018°40'0 0.0
2017-Apr-26 05:30N 54°24' E 018°40'0 0.0
2017-Apr-26 05:00N 54°24' E 018°40'0 0.0
2017-Apr-26 04:30N 54°24' E 018°40'0 0.0
2017-Apr-26 04:00N 54°24' E 018°40'0 0.0
2017-Apr-26 03:30N 54°24' E 018°40'0 0.0
2017-Apr-26 03:00N 54°24' E 018°40'0 0.0
2017-Apr-26 02:30N 54°24' E 018°40'0 0.0
2017-Apr-26 02:00N 54°24' E 018°40'0 0.0
2017-Apr-26 01:30N 54°24' E 018°40'0 0.0
2017-Apr-26 01:00N 54°24' E 018°40'0 0.0
2017-Apr-26 00:30N 54°24' E 018°40'0 0.0
2017-Apr-26 00:00N 54°24' E 018°40'0 0.0
2017-Apr-25 23:30N 54°24' E 018°40'0 0.0
2017-Apr-25 23:00N 54°24' E 018°40'0 0.0
2017-Apr-25 22:30N 54°24' E 018°40'0 0.0
2017-Apr-25 22:00N 54°24' E 018°40'0 0.0
2017-Apr-25 21:30N 54°24' E 018°40'0 0.0
2017-Apr-25 21:00N 54°24' E 018°40'0 0.0
2017-Apr-25 20:30N 54°24' E 018°40'0 0.0
2017-Apr-25 20:00N 54°24' E 018°40'0 0.0
2017-Apr-25 19:30N 54°24' E 018°40'0 0.0
2017-Apr-25 19:00N 54°24' E 018°40'0 0.0
2017-Apr-25 18:30N 54°24' E 018°40'0 0.0
2017-Apr-25 18:00N 54°24' E 018°40'0 0.0
2017-Apr-25 17:30N 54°24' E 018°40'0 0.0
2017-Apr-25 17:00N 54°24' E 018°40'0 0.0
2017-Apr-25 16:30N 54°24' E 018°40'0 0.0
2017-Apr-25 16:00N 54°24' E 018°40'0 0.0
2017-Apr-25 15:30N 54°24' E 018°40'0 0.0
2017-Apr-25 15:00N 54°24' E 018°40'0 0.0
2017-Apr-25 14:00N 54°24' E 018°40'0 0.0
2017-Apr-25 13:30N 54°24' E 018°40'0 0.0
2017-Apr-25 13:00N 54°24' E 018°40'0 0.0
2017-Apr-25 12:30N 54°24' E 018°40'0 0.0
2017-Apr-25 12:00N 54°24' E 018°40'0 0.0
2017-Apr-25 11:30N 54°24' E 018°40'0 0.0
2017-Apr-25 11:00N 54°24' E 018°40'0 0.0
2017-Apr-25 10:30N 54°24' E 018°40'0 0.0
2017-Apr-25 10:00N 54°24' E 018°40'0 0.0
2017-Apr-25 09:30N 54°24' E 018°40'0 0.0
2017-Apr-25 09:00N 54°24' E 018°40'0 0.0
2017-Apr-25 08:30N 54°24' E 018°40'0 0.0
2017-Apr-25 08:00N 54°24' E 018°40'0 0.0
2017-Apr-25 07:30N 54°24' E 018°40'0 0.0
2017-Apr-25 07:00N 54°24' E 018°40'0 0.0
2017-Apr-25 06:30N 54°24' E 018°40'0 1.0
2017-Apr-25 06:01N 54°24' E 018°41'3 5.4
2017-Apr-25 05:31N 54°27' E 018°40'0 0.8
2017-Apr-25 04:57N 54°27' E 018°40'0 0.0
2017-Apr-25 04:30N 54°27' E 018°40'0 0.0
2017-Apr-25 04:00N 54°27' E 018°40'0 0.0
2017-Apr-25 03:27N 54°27' E 018°40'0 0.0
2017-Apr-25 03:00N 54°27' E 018°40'0 0.0
2017-Apr-25 02:30N 54°27' E 018°40'0 0.0
2017-Apr-25 02:00N 54°27' E 018°40'0 0.0
2017-Apr-25 01:30N 54°27' E 018°40'0 0.0
2017-Apr-25 01:00N 54°27' E 018°40'0 0.0
2017-Apr-25 00:30N 54°27' E 018°40'0 0.0
2017-Apr-25 00:00N 54°27' E 018°40'1 2.3
2017-Apr-24 23:30N 54°28' E 018°41'4 7.9
2017-Apr-24 23:00N 54°31' E 018°46'4 8.1
2017-Apr-24 22:30N 54°34' E 018°50'4 7.6
2017-Apr-24 22:00N 54°38' E 018°51'4 7.7
2017-Apr-24 21:30N 54°41' E 018°47'4 8.0
2017-Apr-24 21:00N 54°43' E 018°41'4 8.0
2017-Apr-24 20:30N 54°46' E 018°36'4 7.9
2017-Apr-24 20:00N 54°48' E 018°31'9 7.7
2017-Apr-24 18:53N 54°52' E 018°17'3 8.1
2017-Apr-24 18:30N 54°52' E 018°12'  
2017-Apr-19 00:12N 54°53' E 018°16'3 8.8
2017-Apr-18 23:52N 54°51' E 018°21'3 8.8
2017-Apr-18 23:30N 54°50' E 018°25'4 8.7
2017-Apr-18 23:00N 54°48' E 018°32'5 9.0
2017-Apr-18 22:30N 54°45' E 018°38'5 9.2
2017-Apr-18 22:00N 54°43' E 018°45'4 8.8
2017-Apr-18 21:30N 54°41' E 018°52'4 8.9
2017-Apr-18 21:00N 54°40' E 018°60'4 8.9
2017-Apr-18 20:30N 54°40' E 019°07'4 8.9
2017-Apr-18 20:00N 54°40' E 019°15'1 2.8
2017-Apr-18 19:29N 54°39' E 019°17'0 0.2
2017-Apr-18 17:30N 54°39' E 019°18'0 0.3
2017-Apr-18 17:01N 54°39' E 019°18'4 8.0
2017-Apr-18 16:30N 54°36' E 019°15'1 1.4
2017-Apr-18 15:58N 54°35' E 019°14'0 0.2
2017-Apr-18 15:22N 54°35' E 019°14'2 6.4
2017-Apr-18 15:00N 54°33' E 019°12'5 9.1
2017-Apr-18 14:30N 54°30' E 019°07'7 6.5
2017-Apr-18 13:30N 54°24' E 019°00'0 0.6
2017-Apr-18 13:00N 54°24' E 018°60'0 0.0
2017-Apr-18 12:30N 54°24' E 019°00'0 0.2
2017-Apr-18 12:00N 54°24' E 019°00'0 0.9
2017-Apr-18 11:30N 54°25' E 019°01'1 1.8
2017-Apr-18 11:00N 54°24' E 018°59'4 8.8
2017-Apr-18 10:30N 54°26' E 018°52'5 9.4
2017-Apr-18 10:00N 54°26' E 018°44'3 5.8
2017-Apr-18 09:30N 54°25' E 018°40'1 1.6
2017-Apr-18 08:55N 54°24' E 018°40'0 0.0
2017-Apr-18 08:30N 54°24' E 018°40'0 0.0
2017-Apr-18 07:58N 54°24' E 018°40'0 0.0
2017-Apr-18 07:28N 54°24' E 018°40'0 0.0
2017-Apr-18 06:58N 54°24' E 018°40'0 0.0
2017-Apr-18 06:28N 54°24' E 018°40'0 0.0
2017-Apr-18 05:58N 54°24' E 018°40'0 0.0
2017-Apr-18 05:25N 54°24' E 018°40'0 0.0
2017-Apr-18 04:58N 54°24' E 018°40'0 0.0
2017-Apr-18 04:28N 54°24' E 018°40'0 0.0
2017-Apr-18 03:58N 54°24' E 018°40'0 0.0
2017-Apr-18 03:28N 54°24' E 018°40'0 0.1
2017-Apr-18 02:55N 54°24' E 018°40'0 0.1
2017-Apr-18 02:28N 54°24' E 018°40'0 0.0
2017-Apr-18 01:58N 54°24' E 018°40'0 0.0
2017-Apr-18 01:25N 54°24' E 018°40'0 0.0
2017-Apr-18 00:58N 54°24' E 018°40'0 0.0
2017-Apr-18 00:28N 54°24' E 018°40'0 0.0
2017-Apr-17 23:58N 54°24' E 018°40'0 0.0
2017-Apr-17 23:25N 54°24' E 018°40'0 0.0
2017-Apr-17 22:58N 54°24' E 018°40'0 0.0
2017-Apr-17 22:28N 54°24' E 018°40'0 0.0
2017-Apr-17 21:58N 54°24' E 018°40'0 0.0
2017-Apr-17 21:28N 54°24' E 018°40'0 0.0
2017-Apr-17 20:58N 54°24' E 018°40'0 0.0
2017-Apr-17 20:30N 54°24' E 018°40'0 0.0
2017-Apr-17 20:00N 54°24' E 018°40'0 0.0
2017-Apr-17 19:30N 54°24' E 018°40'0 0.0
2017-Apr-17 19:00N 54°24' E 018°40'0 0.0
2017-Apr-17 18:30N 54°24' E 018°40'0 0.0
2017-Apr-17 18:00N 54°24' E 018°40'0 0.0
2017-Apr-17 17:30N 54°24' E 018°40'0 0.0
2017-Apr-17 17:00N 54°24' E 018°40'  
Track history (hours):
 
Tides and Currents Weather Stations Pressure Air Temp Water Temp Dewpoint Dewpoint Depression Visibility Wind Speed Wind Dir Waves Ship Positions

Oceanographic research ship Oceania (Poland)

Detailed information on ship capabilities available from University of Delaware's Ocean Information Center and ARCUS's ALIAS (Arctic Logistics Information and Support) project.

Last reported at 2017-Apr-27 16:31 UTC. Time now 2017-Apr-27 16:45 UTC.
Position N 54°45' E 019°10'.

Length 49 m; beam 9 m.

Type: Sailing vessel. MMSI: 261000142.

Date/timePositionNaut miles runAvg speedWind from/ knotsBaromVisibWave heightAir tempDewpointWater temp
2017-Apr-27 16:31N 54°45' E 019°10'1 2.4
2017-Apr-27 16:00N 54°43' E 019°11'1 1.7
2017-Apr-27 15:30N 54°44' E 019°10'0 0.6
2017-Apr-27 15:00N 54°44' E 019°11'0 0.2
2017-Apr-27 13:59N 54°44' E 019°10'0 0.0
2017-Apr-27 13:26N 54°44' E 019°10'0 0.1
2017-Apr-27 12:56N 54°44' E 019°11'0 0.0
2017-Apr-27 12:29N 54°44' E 019°11'0 0.0
2017-Apr-27 11:56N 54°44' E 019°11'0 0.9
2017-Apr-27 11:30N 54°44' E 019°11'0 0.3
2017-Apr-27 10:55N 54°44' E 019°11'0 0.0
2017-Apr-27 10:19N 54°44' E 019°11'0 0.0
2017-Apr-27 09:58N 54°44' E 019°11'0 0.0
2017-Apr-27 09:19N 54°44' E 019°11'0 0.0
2017-Apr-27 08:58N 54°44' E 019°11'0 0.0
2017-Apr-27 08:28N 54°44' E 019°11'0 0.0
2017-Apr-27 07:55N 54°44' E 019°11'0 0.0
2017-Apr-27 07:28N 54°44' E 019°11'0 0.0
2017-Apr-27 06:58N 54°44' E 019°11'0 0.0
2017-Apr-27 06:28N 54°44' E 019°11'0 0.0
2017-Apr-27 05:55N 54°44' E 019°11'0 0.2
2017-Apr-27 05:28N 54°44' E 019°11'2 4.1
2017-Apr-27 05:00N 54°42' E 019°11'510.8
2017-Apr-27 04:30N 54°36' E 019°09'510.5
2017-Apr-27 04:00N 54°31' E 019°07'1 2.2
2017-Apr-27 03:28N 54°30' E 019°07'0 0.0
2017-Apr-27 02:58N 54°30' E 019°07'0 0.0
2017-Apr-27 02:28N 54°30' E 019°07'0 0.0
2017-Apr-27 01:58N 54°30' E 019°07'0 0.0
2017-Apr-27 01:28N 54°30' E 019°07'0 0.1
2017-Apr-27 00:58N 54°30' E 019°07'0 0.2
2017-Apr-27 00:28N 54°30' E 019°07'0 0.1
2017-Apr-26 23:55N 54°30' E 019°07'0 0.0
2017-Apr-26 23:25N 54°30' E 019°07'0 0.1
2017-Apr-26 22:58N 54°30' E 019°07'0 0.0
2017-Apr-26 22:28N 54°30' E 019°07'0 0.1
2017-Apr-26 21:58N 54°30' E 019°07'0 0.0
2017-Apr-26 21:28N 54°30' E 019°07'0 0.0
2017-Apr-26 20:58N 54°30' E 019°07'0 0.0
2017-Apr-26 20:28N 54°30' E 019°07'0 0.0
2017-Apr-26 19:58N 54°30' E 019°07'0 0.0
2017-Apr-26 19:28N 54°30' E 019°07'0 0.0
2017-Apr-26 18:58N 54°30' E 019°07'0 0.1
2017-Apr-26 18:30N 54°30' E 019°07'1 1.5
2017-Apr-26 18:00N 54°29' E 019°07'1 2.1
2017-Apr-26 17:30N 54°30' E 019°07'3 6.5
2017-Apr-26 17:00N 54°34' E 019°08'510.4
2017-Apr-26 16:30N 54°39' E 019°09'510.3
2017-Apr-26 15:59N 54°44' E 019°11'0 0.7
2017-Apr-26 15:30N 54°44' E 019°10'0 0.0
2017-Apr-26 15:00N 54°44' E 019°10'0 0.0
2017-Apr-26 14:30N 54°44' E 019°10'0 0.0
2017-Apr-26 13:30N 54°44' E 019°10'0 0.0
2017-Apr-26 13:00N 54°44' E 019°10'0 0.0
2017-Apr-26 12:30N 54°44' E 019°10'0 0.0
2017-Apr-26 12:00N 54°44' E 019°10'0 0.3
2017-Apr-26 11:31N 54°44' E 019°10'4 7.6
2017-Apr-26 11:00N 54°42' E 019°05'610.4
2017-Apr-26 10:28N 54°37' E 018°58'510.7
2017-Apr-26 09:59N 54°34' E 018°52'510.5
2017-Apr-26 09:31N 54°30' E 018°46'510.5
2017-Apr-26 09:01N 54°27' E 018°40'3 5.3
2017-Apr-26 08:29N 54°24' E 018°40'0 0.0
2017-Apr-26 07:59N 54°24' E 018°40'0 0.0
2017-Apr-26 07:29N 54°24' E 018°40'0 0.0
2017-Apr-26 06:59N 54°24' E 018°40'0 0.0
2017-Apr-26 06:29N 54°24' E 018°40'0 0.0
2017-Apr-26 05:56N 54°24' E 018°40'0 0.0
2017-Apr-26 05:30N 54°24' E 018°40'0 0.0
2017-Apr-26 05:00N 54°24' E 018°40'0 0.0
2017-Apr-26 04:30N 54°24' E 018°40'0 0.0
2017-Apr-26 04:00N 54°24' E 018°40'0 0.0
2017-Apr-26 03:30N 54°24' E 018°40'0 0.0
2017-Apr-26 03:00N 54°24' E 018°40'0 0.0
2017-Apr-26 02:30N 54°24' E 018°40'0 0.0
2017-Apr-26 02:00N 54°24' E 018°40'0 0.0
2017-Apr-26 01:30N 54°24' E 018°40'0 0.0
2017-Apr-26 01:00N 54°24' E 018°40'0 0.0
2017-Apr-26 00:30N 54°24' E 018°40'0 0.0
2017-Apr-26 00:00N 54°24' E 018°40'0 0.0
2017-Apr-25 23:30N 54°24' E 018°40'0 0.0
2017-Apr-25 23:00N 54°24' E 018°40'0 0.0
2017-Apr-25 22:30N 54°24' E 018°40'0 0.0
2017-Apr-25 22:00N 54°24' E 018°40'0 0.0
2017-Apr-25 21:30N 54°24' E 018°40'0 0.0
2017-Apr-25 21:00N 54°24' E 018°40'0 0.0
2017-Apr-25 20:30N 54°24' E 018°40'0 0.0
2017-Apr-25 20:00N 54°24' E 018°40'0 0.0
2017-Apr-25 19:30N 54°24' E 018°40'0 0.0
2017-Apr-25 19:00N 54°24' E 018°40'0 0.0
2017-Apr-25 18:30N 54°24' E 018°40'0 0.0
2017-Apr-25 18:00N 54°24' E 018°40'0 0.0
2017-Apr-25 17:30N 54°24' E 018°40'0 0.0
2017-Apr-25 17:00N 54°24' E 018°40'0 0.0
2017-Apr-25 16:30N 54°24' E 018°40'0 0.0
2017-Apr-25 16:00N 54°24' E 018°40'0 0.0
2017-Apr-25 15:30N 54°24' E 018°40'0 0.0
2017-Apr-25 15:00N 54°24' E 018°40'0 0.0
2017-Apr-25 14:00N 54°24' E 018°40'0 0.0
2017-Apr-25 13:30N 54°24' E 018°40'0 0.0
2017-Apr-25 13:00N 54°24' E 018°40'0 0.0
2017-Apr-25 12:30N 54°24' E 018°40'0 0.0
2017-Apr-25 12:00N 54°24' E 018°40'0 0.0
2017-Apr-25 11:30N 54°24' E 018°40'0 0.0
2017-Apr-25 11:00N 54°24' E 018°40'0 0.0
2017-Apr-25 10:30N 54°24' E 018°40'0 0.0
2017-Apr-25 10:00N 54°24' E 018°40'0 0.0
2017-Apr-25 09:30N 54°24' E 018°40'0 0.0
2017-Apr-25 09:00N 54°24' E 018°40'0 0.0
2017-Apr-25 08:30N 54°24' E 018°40'0 0.0
2017-Apr-25 08:00N 54°24' E 018°40'0 0.0
2017-Apr-25 07:30N 54°24' E 018°40'0 0.0
2017-Apr-25 07:00N 54°24' E 018°40'0 0.0
2017-Apr-25 06:30N 54°24' E 018°40'0 1.0
2017-Apr-25 06:01N 54°24' E 018°41'3 5.4
2017-Apr-25 05:31N 54°27' E 018°40'0 0.8
2017-Apr-25 04:57N 54°27' E 018°40'0 0.0
2017-Apr-25 04:30N 54°27' E 018°40'0 0.0
2017-Apr-25 04:00N 54°27' E 018°40'0 0.0
2017-Apr-25 03:27N 54°27' E 018°40'0 0.0
2017-Apr-25 03:00N 54°27' E 018°40'0 0.0
2017-Apr-25 02:30N 54°27' E 018°40'0 0.0
2017-Apr-25 02:00N 54°27' E 018°40'0 0.0
2017-Apr-25 01:30N 54°27' E 018°40'0 0.0
2017-Apr-25 01:00N 54°27' E 018°40'0 0.0
2017-Apr-25 00:30N 54°27' E 018°40'0 0.0
2017-Apr-25 00:00N 54°27' E 018°40'1 2.3
2017-Apr-24 23:30N 54°28' E 018°41'4 7.9
2017-Apr-24 23:00N 54°31' E 018°46'4 8.1
2017-Apr-24 22:30N 54°34' E 018°50'4 7.6
2017-Apr-24 22:00N 54°38' E 018°51'4 7.7
2017-Apr-24 21:30N 54°41' E 018°47'4 8.0
2017-Apr-24 21:00N 54°43' E 018°41'4 8.0
2017-Apr-24 20:30N 54°46' E 018°36'4 7.9
2017-Apr-24 20:00N 54°48' E 018°31'9 7.7
2017-Apr-24 18:53N 54°52' E 018°17'3 8.1
2017-Apr-24 18:30N 54°52' E 018°12'  
2017-Apr-19 00:12N 54°53' E 018°16'3 8.8
2017-Apr-18 23:52N 54°51' E 018°21'3 8.8
2017-Apr-18 23:30N 54°50' E 018°25'4 8.7
2017-Apr-18 23:00N 54°48' E 018°32'5 9.0
2017-Apr-18 22:30N 54°45' E 018°38'5 9.2
2017-Apr-18 22:00N 54°43' E 018°45'4 8.8
2017-Apr-18 21:30N 54°41' E 018°52'4 8.9
2017-Apr-18 21:00N 54°40' E 018°60'4 8.9
2017-Apr-18 20:30N 54°40' E 019°07'4 8.9
2017-Apr-18 20:00N 54°40' E 019°15'1 2.8
2017-Apr-18 19:29N 54°39' E 019°17'0 0.2
2017-Apr-18 17:30N 54°39' E 019°18'0 0.3
2017-Apr-18 17:01N 54°39' E 019°18'4 8.0
2017-Apr-18 16:30N 54°36' E 019°15'1 1.4
2017-Apr-18 15:58N 54°35' E 019°14'0 0.2
2017-Apr-18 15:22N 54°35' E 019°14'2 6.4
2017-Apr-18 15:00N 54°33' E 019°12'5 9.1
2017-Apr-18 14:30N 54°30' E 019°07'7 6.5
2017-Apr-18 13:30N 54°24' E 019°00'0 0.6
2017-Apr-18 13:00N 54°24' E 018°60'0 0.0
2017-Apr-18 12:30N 54°24' E 019°00'0 0.2
2017-Apr-18 12:00N 54°24' E 019°00'0 0.9
2017-Apr-18 11:30N 54°25' E 019°01'1 1.8
2017-Apr-18 11:00N 54°24' E 018°59'4 8.8
2017-Apr-18 10:30N 54°26' E 018°52'5 9.4
2017-Apr-18 10:00N 54°26' E 018°44'3 5.8
2017-Apr-18 09:30N 54°25' E 018°40'1 1.6
2017-Apr-18 08:55N 54°24' E 018°40'0 0.0
2017-Apr-18 08:30N 54°24' E 018°40'0 0.0
2017-Apr-18 07:58N 54°24' E 018°40'0 0.0
2017-Apr-18 07:28N 54°24' E 018°40'0 0.0
2017-Apr-18 06:58N 54°24' E 018°40'0 0.0
2017-Apr-18 06:28N 54°24' E 018°40'0 0.0
2017-Apr-18 05:58N 54°24' E 018°40'0 0.0
2017-Apr-18 05:25N 54°24' E 018°40'0 0.0
2017-Apr-18 04:58N 54°24' E 018°40'0 0.0
2017-Apr-18 04:28N 54°24' E 018°40'0 0.0
2017-Apr-18 03:58N 54°24' E 018°40'0 0.0
2017-Apr-18 03:28N 54°24' E 018°40'0 0.1
2017-Apr-18 02:55N 54°24' E 018°40'0 0.1
2017-Apr-18 02:28N 54°24' E 018°40'0 0.0
2017-Apr-18 01:58N 54°24' E 018°40'0 0.0
2017-Apr-18 01:25N 54°24' E 018°40'0 0.0
2017-Apr-18 00:58N 54°24' E 018°40'0 0.0
2017-Apr-18 00:28N 54°24' E 018°40'0 0.0
2017-Apr-17 23:58N 54°24' E 018°40'0 0.0
2017-Apr-17 23:25N 54°24' E 018°40'0 0.0
2017-Apr-17 22:58N 54°24' E 018°40'0 0.0
2017-Apr-17 22:28N 54°24' E 018°40'0 0.0
2017-Apr-17 21:58N 54°24' E 018°40'0 0.0
2017-Apr-17 21:28N 54°24' E 018°40'0 0.0
2017-Apr-17 20:58N 54°24' E 018°40'0 0.0
2017-Apr-17 20:30N 54°24' E 018°40'0 0.0
2017-Apr-17 20:00N 54°24' E 018°40'0 0.0
2017-Apr-17 19:30N 54°24' E 018°40'0 0.0
2017-Apr-17 19:00N 54°24' E 018°40'0 0.0
2017-Apr-17 18:30N 54°24' E 018°40'0 0.0
2017-Apr-17 18:00N 54°24' E 018°40'0 0.0
2017-Apr-17 17:30N 54°24' E 018°40'0 0.0
2017-Apr-17 17:00N 54°24' E 018°40'  

Dump ship's entire track history